Time;durP1;ratioP1;P1;durP2;ratioP2;P2;SDS_P1;SDS_P2;PMS_P1;PMS_P2;Temp;Humidity;BMP_temperature;BMP_pressure;BME280_temperature;BME280_humidity;BME280_pressure;Samples;Min_cycle;Max_cycle;Signal;HPM_P1;HPM_P2
2023/08/25 00:00:01;;;;;;;18.12;10.40;;;;;;;15.57;67.35;100603.52;1687614;85;21226;-54
2023/08/25 00:03:08;;;;;;;16.20;10.38;;;;;;;15.55;67.50;100613.94;1690512;85;21239;-54
2023/08/25 00:06:14;;;;;;;20.62;10.90;;;;;;;15.53;67.57;100609.14;1687825;85;21763;-54
2023/08/25 00:09:21;;;;;;;19.60;10.65;;;;;;;15.53;67.66;100616.55;1673159;84;21216;-54
2023/08/25 00:12:27;;;;;;;16.80;9.23;;;;;;;15.52;67.76;100616.23;1688242;84;21238;-54
2023/08/25 00:15:33;;;;;;;13.78;8.00;;;;;;;15.50;67.84;100613.69;1752850;81;21365;-54
2023/08/25 00:18:39;;;;;;;10.85;6.75;;;;;;;15.49;67.88;100624.92;1654031;86;21216;-53
2023/08/25 00:21:46;;;;;;;9.90;6.10;;;;;;;15.43;67.91;100625.19;1678151;85;21382;-55
2023/08/25 00:24:55;;;;;;;12.82;7.50;;;;;;;15.40;67.96;100622.84;1742628;82;21354;-54
2023/08/25 00:28:01;;;;;;;10.53;6.50;;;;;;;15.37;68.10;100627.34;1673298;85;21224;-54
2023/08/25 00:31:07;;;;;;;11.38;6.40;;;;;;;15.37;68.28;100621.83;1743187;82;21358;-54
2023/08/25 00:34:14;;;;;;;9.55;6.15;;;;;;;15.37;68.38;100617.69;1743120;82;21362;-54
2023/08/25 00:37:20;;;;;;;11.57;7.08;;;;;;;15.37;68.45;100619.07;1743201;82;21386;-55
2023/08/25 00:40:25;;;;;;;12.47;7.50;;;;;;;15.37;68.47;100620.97;1743170;82;21374;-55
2023/08/25 00:43:33;;;;;;;13.22;6.45;;;;;;;15.36;68.51;100627.55;1743193;82;21369;-54
2023/08/25 00:46:39;;;;;;;15.83;7.20;;;;;;;15.35;68.66;100621.72;1743190;82;21398;-53
2023/08/25 00:49:45;;;;;;;13.78;7.08;;;;;;;15.36;68.78;100620.13;1743096;82;21801;-54
2023/08/25 00:52:50;;;;;;;12.63;7.20;;;;;;;15.36;68.87;100614.61;1743318;82;21358;-54
2023/08/25 00:55:57;;;;;;;10.65;7.05;;;;;;;15.37;68.92;100627.86;1743201;82;21352;-54
2023/08/25 00:59:03;;;;;;;11.33;6.58;;;;;;;15.37;69.00;100627.34;1742230;82;21811;-55
2023/08/25 01:02:08;;;;;;;12.28;6.67;;;;;;;15.38;69.08;100633.20;1679360;85;21418;-53
2023/08/25 01:05:16;;;;;;;13.45;7.22;;;;;;;15.37;69.10;100635.62;1697271;84;21208;-53
2023/08/25 01:08:24;;;;;;;10.82;7.10;;;;;;;15.38;69.15;100637.86;1699325;84;21402;-53
2023/08/25 01:11:57;;;;;;;13.38;6.65;;;;;;;15.39;69.27;100623.03;1659420;85;21382;-56
2023/08/25 01:15:17;;;;;;;9.58;6.60;;;;;;;15.40;69.37;100622.84;1742372;82;21385;-55
2023/08/25 01:18:34;;;;;;;12.43;6.53;;;;;;;15.38;69.32;100619.94;1734557;82;21873;-55
2023/08/25 01:21:42;;;;;;;10.60;6.75;;;;;;;15.32;69.20;100613.30;1734668;82;21375;-56
2023/08/25 01:24:49;;;;;;;10.00;6.80;;;;;;;15.32;69.36;100609.70;1734906;82;21360;-54
2023/08/25 01:27:57;;;;;;;11.18;6.30;;;;;;;15.33;69.53;100601.75;1734814;82;21397;-54
2023/08/25 01:31:04;;;;;;;12.03;6.92;;;;;;;15.33;69.54;100602.61;1734602;82;22106;-54
2023/08/25 01:34:13;;;;;;;10.68;6.92;;;;;;;15.32;69.57;100601.44;1734697;82;21883;-56
2023/08/25 01:37:28;;;;;;;9.13;6.50;;;;;;;15.31;69.67;100593.67;1673609;85;21678;-56
2023/08/25 01:40:41;;;;;;;10.55;6.85;;;;;;;15.29;69.67;100592.15;1680179;85;21236;-56
2023/08/25 01:43:52;;;;;;;12.13;7.33;;;;;;;15.26;69.75;100596.69;1734717;82;21753;-56
2023/08/25 01:47:00;;;;;;;10.25;6.90;;;;;;;15.24;69.83;100596.06;1734550;82;21833;-56
2023/08/25 01:50:07;;;;;;;15.38;7.30;;;;;;;15.21;69.88;100594.55;1734467;82;21362;-55
2023/08/25 01:53:12;;;;;;;13.00;8.05;;;;;;;15.18;69.92;100585.30;1673647;85;21430;-56
2023/08/25 01:56:18;;;;;;;14.25;8.68;;;;;;;15.15;69.94;100586.22;1673618;85;21955;-56
2023/08/25 01:59:25;;;;;;;14.05;8.30;;;;;;;15.12;69.96;100579.72;1680147;85;21251;-54
2023/08/25 02:02:31;;;;;;;11.75;8.13;;;;;;;15.08;69.93;100579.27;1703299;83;21338;-54
2023/08/25 02:05:38;;;;;;;12.43;8.53;;;;;;;15.05;69.96;100578.29;1702624;82;22012;-54
2023/08/25 02:08:45;;;;;;;15.95;8.58;;;;;;;15.03;70.04;100575.42;1737587;81;21215;-55
2023/08/25 02:11:51;;;;;;;11.97;8.70;;;;;;;14.99;70.13;100570.30;1673573;85;21995;-55
2023/08/25 02:14:57;;;;;;;15.32;8.55;;;;;;;14.97;70.22;100564.12;1673805;85;21795;-55
2023/08/25 02:18:03;;;;;;;13.05;8.68;;;;;;;14.92;70.08;100572.14;1672718;84;21261;-55
2023/08/25 02:21:10;;;;;;;16.32;9.53;;;;;;;14.85;69.92;100571.77;1672871;85;21240;-56
2023/08/25 02:24:18;;;;;;;14.85;7.78;;;;;;;14.77;69.89;100581.03;1672151;85;21299;-55
2023/08/25 02:27:23;;;;;;;12.98;8.50;;;;;;;14.73;70.01;100578.88;1672336;85;21303;-56
2023/08/25 02:30:31;;;;;;;15.03;8.35;;;;;;;14.71;70.14;100574.08;1672517;85;21236;-54
2023/08/25 02:33:37;;;;;;;13.78;7.65;;;;;;;14.70;70.29;100569.08;1672992;85;21239;-55
2023/08/25 02:36:42;;;;;;;14.00;7.28;;;;;;;14.69;70.43;100566.02;1672837;85;21252;-55
2023/08/25 02:39:49;;;;;;;16.40;8.10;;;;;;;14.70;70.51;100565.47;1676283;85;21283;-55
2023/08/25 02:42:55;;;;;;;10.85;7.25;;;;;;;14.66;70.45;100570.55;1671949;85;21243;-55
2023/08/25 02:46:01;;;;;;;13.70;8.38;;;;;;;14.62;70.36;100566.98;1675788;85;21236;-55
2023/08/25 02:49:08;;;;;;;14.13;7.58;;;;;;;14.58;70.42;100562.41;1672372;86;21606;-55
2023/08/25 02:52:14;;;;;;;13.80;7.62;;;;;;;14.59;70.58;100557.73;1676321;85;21386;-57
2023/08/25 02:55:20;;;;;;;12.30;7.45;;;;;;;14.56;70.59;100554.86;1672823;85;21264;-54
2023/08/25 02:58:26;;;;;;;14.23;7.95;;;;;;;14.52;70.52;100555.45;1680601;85;21888;-56
2023/08/25 03:01:36;;;;;;;12.18;7.62;;;;;;;14.48;70.47;100556.88;1673011;86;21256;-56
2023/08/25 03:04:43;;;;;;;10.82;7.85;;;;;;;14.45;70.55;100562.27;1675636;85;21259;-54
2023/08/25 03:07:51;;;;;;;14.38;7.58;;;;;;;14.47;70.79;100560.19;1720122;83;21370;-57
2023/08/25 03:10:57;;;;;;;12.13;7.85;;;;;;;14.50;70.97;100561.16;1642082;85;21906;-55
2023/08/25 03:14:03;;;;;;;14.58;7.90;;;;;;;14.53;71.12;100561.28;1745092;81;21385;-56
2023/08/25 03:17:10;;;;;;;14.45;7.60;;;;;;;14.56;71.24;100563.13;1680313;85;21276;-58
2023/08/25 03:20:16;;;;;;;14.85;8.30;;;;;;;14.58;71.33;100563.78;1740883;81;21302;-56
2023/08/25 03:23:22;;;;;;;14.03;7.00;;;;;;;14.62;71.38;100564.22;1744793;82;21243;-56
2023/08/25 03:26:27;;;;;;;11.53;7.00;;;;;;;14.64;71.44;100566.27;1745011;82;21200;-56
2023/08/25 03:29:34;;;;;;;13.25;7.05;;;;;;;14.66;71.50;100561.41;1745486;81;21215;-56
2023/08/25 03:32:41;;;;;;;11.97;6.95;;;;;;;14.69;71.52;100559.64;1745141;82;21651;-55
2023/08/25 03:35:50;;;;;;;10.03;7.65;;;;;;;14.69;71.53;100554.98;1685887;84;21446;-55
2023/08/25 03:38:57;;;;;;;12.05;7.00;;;;;;;14.72;71.59;100562.86;1683163;85;21382;-55
2023/08/25 03:42:02;;;;;;;12.20;7.80;;;;;;;14.77;71.69;100573.28;1686315;84;21406;-55
2023/08/25 03:45:08;;;;;;;11.95;7.97;;;;;;;14.80;71.73;100560.48;1683665;85;21358;-56
2023/08/25 03:48:15;;;;;;;13.40;7.92;;;;;;;14.85;71.84;100569.88;1685791;84;21267;-55
2023/08/25 03:51:21;;;;;;;13.20;8.00;;;;;;;14.92;71.97;100571.31;1683931;84;21370;-57
2023/08/25 03:54:31;;;;;;;12.10;8.10;;;;;;;14.98;72.06;100574.64;1686030;84;21438;-60
2023/08/25 03:57:34;;;;;;;13.22;8.85;;;;;;;15.04;72.14;100576.59;1684258;84;21434;-56
2023/08/25 04:00:40;;;;;;;11.63;7.65;;;;;;;15.11;72.21;100577.48;1685772;84;21367;-56
2023/08/25 04:03:47;;;;;;;15.83;9.18;;;;;;;15.17;72.24;100574.46;1683749;84;21465;-56
2023/08/25 04:06:54;;;;;;;17.90;10.35;;;;;;;15.23;72.31;100577.80;1686024;84;21899;-56
2023/08/25 04:10:01;;;;;;;18.70;10.32;;;;;;;15.31;72.41;100577.13;1683797;85;21382;-55
2023/08/25 04:13:07;;;;;;;19.70;10.75;;;;;;;15.39;72.46;100589.93;1686266;84;21381;-56
2023/08/25 04:16:13;;;;;;;17.23;9.83;;;;;;;15.45;72.55;100584.46;1683530;85;21398;-55
2023/08/25 04:19:21;;;;;;;17.85;9.08;;;;;;;15.55;72.62;100582.72;1667200;84;21390;-56
2023/08/25 04:22:26;;;;;;;17.45;9.53;;;;;;;15.62;72.70;100585.84;1676380;85;21233;-55
2023/08/25 04:25:33;;;;;;;15.40;9.48;;;;;;;15.72;72.79;100593.23;1684554;85;21415;-55
2023/08/25 04:28:40;;;;;;;16.15;10.15;;;;;;;15.81;72.87;100595.30;1702254;84;21383;-57
2023/08/25 04:31:47;;;;;;;15.98;9.75;;;;;;;15.91;72.98;100590.23;1714332;83;21260;-55
2023/08/25 04:34:56;;;;;;;16.52;11.05;;;;;;;16.01;73.09;100602.63;1689398;85;21368;-56
2023/08/25 04:38:02;;;;;;;14.98;10.38;;;;;;;16.11;73.13;100607.22;1713723;83;21299;-54
2023/08/25 04:41:08;;;;;;;17.80;9.88;;;;;;;16.22;73.18;100613.53;1717582;83;21289;-55
2023/08/25 04:44:15;;;;;;;15.58;8.90;;;;;;;16.32;73.20;100610.37;1717594;83;21232;-55
2023/08/25 04:47:23;;;;;;;16.23;9.78;;;;;;;16.43;73.27;100611.16;1716827;83;21236;-56
2023/08/25 04:50:28;;;;;;;17.32;9.95;;;;;;;16.54;73.34;100612.52;1707196;82;21740;-57
2023/08/25 04:53:33;;;;;;;15.70;9.90;;;;;;;16.65;73.37;100609.14;1728278;82;21352;-59
2023/08/25 04:56:31;;;;;;;15.18;9.43;;;;;;;16.74;73.41;100604.59;1675109;85;21319;-58
2023/08/25 04:59:36;;;;;;;16.32;9.68;;;;;;;16.87;73.41;100600.98;1674455;85;21776;-55
2023/08/25 05:02:43;;;;;;;17.23;9.23;;;;;;;16.97;73.44;100606.92;1681672;85;21394;-55
2023/08/25 05:05:50;;;;;;;18.77;10.95;;;;;;;17.08;73.45;100604.39;1731764;82;21365;-54
2023/08/25 05:08:57;;;;;;;13.08;8.25;;;;;;;17.20;73.50;100608.24;1698487;83;21234;-54
2023/08/25 05:12:03;;;;;;;22.22;10.25;;;;;;;17.33;73.54;100618.45;1714251;83;21789;-54
2023/08/25 05:15:11;;;;;;;15.23;9.08;;;;;;;17.46;73.59;100620.69;1720589;81;21199;-55
2023/08/25 05:18:17;;;;;;;16.75;7.87;;;;;;;17.60;73.63;100622.92;1724631;81;21432;-54
2023/08/25 05:21:24;;;;;;;16.07;7.30;;;;;;;17.72;73.63;100624.81;1652297;84;21290;-54
2023/08/25 05:24:33;;;;;;;11.12;6.95;;;;;;;17.88;73.62;100624.36;1677587;85;21212;-54
2023/08/25 05:27:41;;;;;;;9.55;6.92;;;;;;;18.04;73.64;100623.55;1680195;84;21271;-58
2023/08/25 05:30:55;;;;;;;10.78;7.28;;;;;;;18.23;73.68;100635.96;1740949;82;21219;-55
2023/08/25 05:34:09;;;;;;;13.13;7.05;;;;;;;18.47;73.74;100636.61;1747170;81;21259;-53
2023/08/25 05:37:17;;;;;;;12.55;6.97;;;;;;;18.77;73.80;100643.30;1745322;81;21773;-53
2023/08/25 05:40:23;;;;;;;10.28;6.33;;;;;;;19.04;73.76;100636.47;1722436;81;21623;-54
2023/08/25 05:43:29;;;;;;;10.43;6.10;;;;;;;19.28;73.71;100638.45;1746084;82;21211;-55
2023/08/25 05:46:36;;;;;;;11.43;6.22;;;;;;;19.49;73.58;100635.82;1695404;82;21220;-54
2023/08/25 05:49:41;;;;;;;9.83;6.75;;;;;;;19.66;73.49;100638.36;1732044;81;21409;-54
2023/08/25 05:52:49;;;;;;;10.08;6.35;;;;;;;19.82;73.37;100646.63;1739455;81;21234;-54
2023/08/25 05:55:57;;;;;;;11.93;5.83;;;;;;;19.94;73.25;100644.78;1736398;80;21261;-55
2023/08/25 05:59:07;;;;;;;23.40;13.90;;;;;;;20.04;73.13;100642.33;1728187;81;21273;-55
2023/08/25 06:02:14;;;;;;;11.57;6.55;;;;;;;20.19;73.08;100638.11;1730208;80;21194;-58
2023/08/25 06:05:19;;;;;;;14.05;9.40;;;;;;;20.32;72.99;100639.34;1677265;83;21863;-54
2023/08/25 06:08:26;;;;;;;10.95;6.70;;;;;;;20.47;72.94;100638.39;1731720;82;21235;-54
2023/08/25 06:11:33;;;;;;;8.10;5.10;;;;;;;20.65;72.87;100638.91;1706818;82;21211;-56
2023/08/25 06:14:40;;;;;;;11.12;5.60;;;;;;;20.80;72.72;100637.95;1690847;82;21242;-56
2023/08/25 06:17:45;;;;;;;17.17;5.85;;;;;;;20.90;72.52;100637.39;1699355;82;21685;-55
2023/08/25 06:20:52;;;;;;;11.57;7.50;;;;;;;20.96;72.32;100628.97;1685026;83;21242;-54
2023/08/25 06:23:57;;;;;;;12.85;5.95;;;;;;;21.02;72.20;100634.12;1635233;85;21501;-54
2023/08/25 06:27:03;;;;;;;8.10;5.10;;;;;;;21.09;72.15;100630.14;1655137;85;21243;-54
2023/08/25 06:30:09;;;;;;;11.15;5.87;;;;;;;21.15;72.03;100630.60;1653081;84;21785;-55
2023/08/25 06:33:16;;;;;;;8.63;5.83;;;;;;;21.21;71.95;100625.47;1663381;85;21220;-55
2023/08/25 06:36:23;;;;;;;9.78;4.67;;;;;;;21.27;71.86;100629.20;1721714;82;21275;-54
2023/08/25 06:39:32;;;;;;;8.55;4.50;;;;;;;21.38;71.77;100632.02;1723539;82;21193;-55
2023/08/25 06:42:43;;;;;;;8.25;4.30;;;;;;;21.48;71.67;100633.69;1711592;82;21188;-56
2023/08/25 06:45:49;;;;;;;7.50;4.42;;;;;;;21.59;71.58;100632.84;1675311;85;21237;-54
2023/08/25 06:48:56;;;;;;;12.13;5.37;;;;;;;21.69;71.54;100626.67;1724014;82;21815;-54
2023/08/25 06:52:02;;;;;;;6.25;3.95;;;;;;;21.85;71.46;100624.58;1721142;82;21606;-54
2023/08/25 06:55:11;;;;;;;5.53;3.83;;;;;;;22.01;71.37;100623.27;1721695;82;21267;-57
2023/08/25 06:58:22;;;;;;;;;;;;;;;22.18;71.25;100616.41;1717274;82;21802;-54
2023/08/25 07:01:36;;;;;;;9.55;4.00;;;;;;;22.39;71.06;100624.67;1742112;82;20601;-56
2023/08/25 07:04:43;;;;;;;9.40;4.05;;;;;;;22.65;70.97;100622.72;1715496;82;21589;-54
2023/08/25 07:07:51;;;;;;;7.83;4.40;;;;;;;22.87;70.74;100623.71;1680521;84;21227;-54
2023/08/25 07:10:56;;;;;;;6.47;3.58;;;;;;;23.04;70.45;100621.25;1669824;86;21227;-55
2023/08/25 07:14:01;;;;;;;8.05;3.58;;;;;;;23.19;70.13;100615.10;1711854;82;21562;-56
2023/08/25 07:17:08;;;;;;;6.97;3.52;;;;;;;23.33;69.84;100616.50;1720730;82;21796;-55
2023/08/25 07:20:17;;;;;;;9.08;3.60;;;;;;;23.40;69.52;100624.17;1670005;85;21291;-55
2023/08/25 07:23:25;;;;;;;7.53;4.12;;;;;;;23.41;69.21;100628.11;1661304;84;21219;-55
2023/08/25 07:26:40;;;;;;;7.95;3.45;;;;;;;23.40;68.90;100623.61;1671169;85;21228;-56
2023/08/25 07:29:47;;;;;;;6.17;3.55;;;;;;;23.41;68.66;100619.73;1723639;82;21253;-55
2023/08/25 07:32:52;;;;;;;8.00;3.30;;;;;;;23.42;68.42;100620.59;1729953;82;21270;-56
2023/08/25 07:35:57;;;;;;;5.72;3.50;;;;;;;23.41;68.15;100621.66;1724295;80;21783;-55
2023/08/25 07:39:02;;;;;;;7.42;3.85;;;;;;;23.38;67.96;100617.45;1720434;82;21188;-56
2023/08/25 07:42:08;;;;;;;6.35;3.45;;;;;;;23.39;67.78;100622.46;1725961;81;21203;-55
2023/08/25 07:45:19;;;;;;;8.03;3.33;;;;;;;23.42;67.64;100621.98;1678947;85;21779;-55
2023/08/25 07:48:23;;;;;;;4.87;2.80;;;;;;;23.45;67.44;100615.88;1656954;85;21818;-56
2023/08/25 07:51:29;;;;;;;7.40;3.00;;;;;;;23.48;67.29;100618.17;1710530;83;21761;-57
2023/08/25 07:54:36;;;;;;;7.05;2.95;;;;;;;23.53;67.08;100619.66;1663683;85;21760;-56
2023/08/25 07:57:43;;;;;;;7.10;3.22;;;;;;;23.59;66.92;100619.45;1673814;84;21245;-56
2023/08/25 08:00:50;;;;;;;6.12;3.25;;;;;;;23.65;66.71;100616.20;1686915;84;21263;-54
2023/08/25 08:03:57;;;;;;;4.92;2.40;;;;;;;23.71;66.49;100619.37;1719106;81;21215;-55
2023/08/25 08:07:05;;;;;;;5.33;2.50;;;;;;;23.76;66.28;100622.25;1741298;81;21246;-55
2023/08/25 08:10:12;;;;;;;6.47;2.72;;;;;;;23.82;66.06;100619.82;1725755;81;21393;-55
2023/08/25 08:13:17;;;;;;;3.87;2.52;;;;;;;23.88;65.85;100615.98;1724628;83;21389;-54
2023/08/25 08:16:24;;;;;;;8.80;2.83;;;;;;;23.98;65.64;100623.72;1730977;81;21941;-56
2023/08/25 08:19:31;;;;;;;4.50;2.58;;;;;;;24.04;65.37;100627.73;1731027;81;21871;-54
2023/08/25 08:22:38;;;;;;;5.15;2.83;;;;;;;24.09;64.99;100630.61;1708230;83;21954;-57
2023/08/25 08:25:48;;;;;;;5.10;2.85;;;;;;;24.12;64.72;100630.09;1667126;84;21720;-56
2023/08/25 08:28:55;;;;;;;5.15;2.72;;;;;;;24.14;64.51;100627.89;1725841;81;21389;-57
2023/08/25 08:32:04;;;;;;;4.30;2.55;;;;;;;24.18;64.17;100623.45;1737616;80;21215;-54
2023/08/25 08:35:08;;;;;;;7.72;3.58;;;;;;;24.25;63.99;100632.52;1690179;83;21224;-57
2023/08/25 08:38:14;;;;;;;8.38;2.90;;;;;;;24.34;63.77;100618.36;1727674;80;21242;-57
2023/08/25 08:41:21;;;;;;;4.28;2.60;;;;;;;24.46;63.50;100625.23;1735255;80;21320;-56
2023/08/25 08:44:28;;;;;;;8.98;2.80;;;;;;;24.57;63.20;100618.66;1748794;80;21772;-60
2023/08/25 08:47:38;;;;;;;4.50;2.22;;;;;;;24.69;62.92;100609.03;1729294;80;21201;-57
2023/08/25 08:50:41;;;;;;;6.53;2.40;;;;;;;24.81;62.58;100609.75;1677772;84;21248;-57
2023/08/25 08:53:50;;;;;;;4.35;2.25;;;;;;;24.91;62.29;100602.84;1729712;82;21260;-56
2023/08/25 08:57:01;;;;;;;5.87;2.22;;;;;;;25.00;61.96;100599.02;1735042;80;21243;-57
2023/08/25 09:00:10;;;;;;;4.15;2.27;;;;;;;25.08;61.67;100596.56;1732681;80;21218;-57
2023/08/25 09:03:17;;;;;;;6.03;2.75;;;;;;;25.17;61.36;100601.69;1713350;80;21223;-58
2023/08/25 09:06:21;;;;;;;4.55;1.95;;;;;;;25.30;61.05;100600.70;1722448;82;21216;-56
2023/08/25 09:09:27;;;;;;;4.42;1.70;;;;;;;25.40;60.60;100605.59;1726345;82;21642;-55
2023/08/25 09:12:34;;;;;;;3.52;2.02;;;;;;;25.43;60.11;100602.24;1688021;82;21867;-56
2023/08/25 09:15:39;;;;;;;5.15;2.47;;;;;;;25.44;59.77;100601.98;1701678;80;21734;-55
2023/08/25 09:18:46;;;;;;;7.47;2.08;;;;;;;25.47;59.46;100602.84;1737661;80;21251;-54
2023/08/25 09:21:55;;;;;;;4.67;2.30;;;;;;;25.49;59.16;100599.77;1723967;80;21227;-56
2023/08/25 09:25:01;;;;;;;5.87;2.30;;;;;;;25.54;58.96;100589.45;1689638;83;21243;-56
2023/08/25 09:28:11;;;;;;;4.42;2.10;;;;;;;25.63;58.75;100593.44;1663726;85;21233;-56
2023/08/25 09:31:28;;;;;;;7.15;2.40;;;;;;;25.72;58.36;100602.20;1685136;84;21218;-57
2023/08/25 09:34:33;;;;;;;5.20;2.30;;;;;;;25.77;58.06;100599.41;1696654;83;21222;-56
2023/08/25 09:37:52;;;;;;;5.78;2.22;;;;;;;25.90;57.73;100587.72;1666915;82;21283;-55
2023/08/25 09:40:58;;;;;;;5.47;1.98;;;;;;;26.05;57.43;100597.69;1670899;85;21214;-56
2023/08/25 09:44:06;;;;;;;5.42;2.70;;;;;;;26.18;57.09;100590.15;1708747;84;21382;-56
2023/08/25 09:47:14;;;;;;;3.67;2.20;;;;;;;26.30;56.81;100593.05;1708810;82;21235;-56
2023/08/25 09:50:21;;;;;;;5.50;1.92;;;;;;;26.44;56.48;100589.16;1682481;83;21259;-56
2023/08/25 09:53:27;;;;;;;4.30;2.00;;;;;;;26.53;56.07;100593.70;1699603;82;21298;-56
2023/08/25 09:56:34;;;;;;;5.67;1.98;;;;;;;26.58;55.70;100588.93;1682538;82;21255;-56
2023/08/25 09:59:40;;;;;;;2.75;1.85;;;;;;;26.65;55.27;100589.56;1699598;84;21821;-56
2023/08/25 10:02:47;;;;;;;5.45;2.12;;;;;;;26.76;54.90;100588.47;1700541;84;21228;-58
2023/08/25 10:05:52;;;;;;;5.58;2.42;;;;;;;26.77;54.59;100592.09;1701100;82;21813;-58
2023/08/25 10:09:00;;;;;;;6.45;1.90;;;;;;;26.86;54.38;100593.27;1667433;85;21315;-58
2023/08/25 10:12:07;;;;;;;3.00;1.90;;;;;;;26.93;54.09;100598.05;1682788;84;21317;-58
2023/08/25 10:15:15;;;;;;;5.58;1.98;;;;;;;26.95;53.73;100590.19;1691409;83;21228;-57
2023/08/25 10:18:20;;;;;;;4.70;1.80;;;;;;;26.94;53.45;100596.36;1699162;84;21217;-57
2023/08/25 10:21:27;;;;;;;4.12;1.90;;;;;;;26.93;53.07;100598.05;1620091;87;21787;-56
2023/08/25 10:24:33;;;;;;;2.67;1.70;;;;;;;26.85;52.75;100598.59;1689448;84;21220;-58
2023/08/25 10:27:41;;;;;;;4.37;1.87;;;;;;;26.79;52.47;100585.10;1691419;82;21255;-59
2023/08/25 10:30:50;;;;;;;5.12;1.85;;;;;;;26.90;52.35;100582.59;1680400;84;21236;-58
2023/08/25 10:33:57;;;;;;;3.92;1.52;;;;;;;27.00;52.19;100581.22;1699627;83;21743;-58
2023/08/25 10:37:14;;;;;;;3.60;1.80;;;;;;;27.08;51.95;100577.01;1683204;85;21232;-58
2023/08/25 10:40:20;;;;;;;4.35;2.05;;;;;;;27.12;51.65;100576.16;1686730;84;21228;-58
2023/08/25 10:43:33;;;;;;;5.35;2.30;;;;;;;27.09;51.23;100585.16;1673751;84;21271;-57
2023/08/25 10:46:42;;;;;;;3.65;1.85;;;;;;;27.07;51.03;100578.11;1690369;83;21225;-57
2023/08/25 10:49:50;;;;;;;3.77;2.12;;;;;;;27.14;50.88;100580.95;1709758;83;21251;-60
2023/08/25 10:52:57;;;;;;;6.15;2.20;;;;;;;27.12;50.57;100577.57;1669433;85;21235;-58
2023/08/25 10:56:02;;;;;;;4.05;2.35;;;;;;;27.06;50.35;100566.05;1705128;83;21548;-57
2023/08/25 10:59:14;;;;;;;4.35;2.40;;;;;;;27.12;50.30;100569.14;1689871;84;21808;-59
2023/08/25 11:02:45;;;;;;;4.80;2.17;;;;;;;27.22;50.14;100559.31;1656837;84;21319;-57
2023/08/25 11:05:51;;;;;;;4.65;2.30;;;;;;;27.38;50.04;100565.26;1694305;84;21879;-57
2023/08/25 11:09:03;;;;;;;5.40;1.85;;;;;;;27.53;49.84;100563.83;1663189;85;21614;-57
2023/08/25 11:12:12;;;;;;;6.12;2.52;;;;;;;27.67;49.63;100564.11;1697206;82;21239;-59
2023/08/25 11:15:19;;;;;;;4.92;2.27;;;;;;;27.70;49.28;100566.35;1660756;83;21330;-57
2023/08/25 11:18:24;;;;;;;4.22;2.40;;;;;;;27.63;48.85;100562.97;1687466;83;21713;-58
2023/08/25 11:21:33;;;;;;;3.30;2.20;;;;;;;27.55;48.60;100565.80;1681149;85;21209;-59
2023/08/25 11:24:39;;;;;;;7.35;2.52;;;;;;;27.57;48.55;100563.55;1705497;84;21590;-57
2023/08/25 11:27:44;;;;;;;5.10;2.00;;;;;;;27.72;48.47;100566.34;1680601;84;21237;-58
2023/08/25 11:30:49;;;;;;;5.40;2.95;;;;;;;27.90;48.31;100558.45;1689595;84;22090;-56
2023/08/25 11:33:56;;;;;;;3.95;1.87;;;;;;;28.03;48.08;100555.89;1686349;84;21221;-57
2023/08/25 11:37:02;;;;;;;4.80;2.33;;;;;;;28.01;47.69;100559.55;1675580;83;21766;-58
2023/08/25 11:40:09;;;;;;;4.92;2.10;;;;;;;27.95;47.44;100565.47;1713146;82;21220;-58
2023/08/25 11:43:08;;;;;;;7.05;2.35;;;;;;;27.82;47.24;100559.84;1737623;82;21377;-59
2023/08/25 11:46:09;;;;;;;7.87;2.42;;;;;;;27.67;46.98;100559.89;1706824;83;21386;-58
2023/08/25 11:48:54;;;;;;;5.17;2.12;;;;;;;27.59;46.89;100563.27;1708510;82;21394;-59
2023/08/25 11:51:47;;;;;;;5.00;2.08;;;;;;;27.52;46.79;100559.89;1714933;82;21859;-59
2023/08/25 11:54:48;;;;;;;3.85;1.90;;;;;;;27.51;46.85;100556.81;1716643;82;21197;-57
2023/08/25 11:57:41;;;;;;;4.58;2.05;;;;;;;27.56;46.71;100556.78;1705544;84;21386;-59
2023/08/25 12:00:28;;;;;;;4.67;1.92;;;;;;;27.65;46.80;100548.89;1706513;83;21759;-59
2023/08/25 12:03:24;;;;;;;11.53;4.80;;;;;;;27.79;46.80;100547.20;1729066;82;21215;-57
2023/08/25 12:06:30;;;;;;;9.88;4.37;;;;;;;27.91;46.72;100541.86;1709509;82;21781;-60
2023/08/25 12:09:36;;;;;;;8.85;2.72;;;;;;;27.98;46.41;100537.60;1727504;82;21184;-58
2023/08/25 12:12:45;;;;;;;4.60;2.40;;;;;;;28.04;46.26;100553.90;1739646;81;21698;-57
2023/08/25 12:15:52;;;;;;;4.00;2.20;;;;;;;27.99;45.94;100549.13;1710146;82;21219;-57
2023/08/25 12:19:00;;;;;;;4.08;2.02;;;;;;;27.92;45.70;100539.31;1729773;82;21813;-59
2023/08/25 12:22:10;;;;;;;4.72;2.27;;;;;;;27.89;45.65;100532.30;1669661;85;21236;-60
2023/08/25 12:25:16;;;;;;;5.97;2.45;;;;;;;27.96;45.63;100534.78;1715988;82;21309;-59
2023/08/25 12:28:22;;;;;;;3.83;2.12;;;;;;;28.02;45.47;100536.47;1718346;82;21555;-57
2023/08/25 12:31:21;;;;;;;3.83;2.58;;;;;;;28.06;45.35;100532.80;1721133;81;21743;-58
2023/08/25 12:34:14;;;;;;;8.93;2.65;;;;;;;28.10;45.18;100536.70;1675140;83;21773;-59
2023/08/25 12:37:23;;;;;;;4.08;2.47;;;;;;;28.08;44.91;100539.55;1705981;81;21756;-59
2023/08/25 12:40:28;;;;;;;6.45;2.42;;;;;;;28.03;44.65;100531.96;1735753;81;21557;-57
2023/08/25 12:43:35;;;;;;;4.87;2.60;;;;;;;28.02;44.56;100530.84;1726044;81;21796;-58
2023/08/25 12:46:42;;;;;;;4.35;2.65;;;;;;;27.99;44.42;100535.64;1726385;82;21744;-59
2023/08/25 12:49:48;;;;;;;5.40;2.40;;;;;;;28.03;44.51;100543.22;1700492;83;21736;-60
2023/08/25 12:52:54;;;;;;;3.77;2.27;;;;;;;28.07;44.35;100530.24;1699727;83;21279;-59
2023/08/25 12:56:01;;;;;;;3.30;2.08;;;;;;;28.03;44.17;100529.70;1700432;83;21251;-58
2023/08/25 12:59:07;;;;;;;5.37;2.08;;;;;;;27.99;44.10;100542.09;1662896;85;21229;-58
2023/08/25 13:02:11;;;;;;;7.40;2.27;;;;;;;27.98;44.00;100529.16;1655038;85;21269;-57
2023/08/25 13:05:17;;;;;;;4.85;2.00;;;;;;;27.98;43.89;100541.83;1645960;85;21618;-55
2023/08/25 13:08:23;;;;;;;5.70;3.25;;;;;;;28.00;43.78;100541.53;1655771;84;21813;-57
2023/08/25 13:11:28;;;;;;;5.72;3.10;;;;;;;27.99;43.64;100535.05;1649997;85;21281;-56
2023/08/25 13:14:33;;;;;;;7.58;2.47;;;;;;;27.95;43.54;100540.14;1653789;85;22147;-56
2023/08/25 13:17:40;;;;;;;6.83;2.30;;;;;;;27.88;43.39;100534.81;1709546;82;21223;-57
2023/08/25 13:20:46;;;;;;;4.03;2.12;;;;;;;27.76;43.21;100530.89;1707548;83;21384;-55
2023/08/25 13:23:53;;;;;;;8.23;2.15;;;;;;;27.63;43.13;100538.50;1701950;83;21223;-55
2023/08/25 13:26:59;;;;;;;7.25;2.65;;;;;;;27.51;43.07;100530.09;1707232;84;21741;-56
2023/08/25 13:30:13;;;;;;;6.92;2.47;;;;;;;27.40;43.07;100527.83;1708593;82;21785;-56
2023/08/25 13:33:18;;;;;;;13.90;10.08;;;;;;;27.29;43.03;100526.15;1733150;82;21554;-55
2023/08/25 13:36:25;;;;;;;17.65;10.50;;;;;;;27.20;43.04;100533.44;1727320;82;21231;-56
2023/08/25 13:39:29;;;;;;;10.35;5.42;;;;;;;27.11;43.06;100538.50;1704494;83;21284;-56
2023/08/25 13:42:37;;;;;;;11.40;3.95;;;;;;;27.01;43.07;100530.91;1706744;82;21327;-56
2023/08/25 13:45:44;;;;;;;5.85;3.45;;;;;;;27.00;43.16;100531.19;1682093;83;21204;-56
2023/08/25 13:48:51;;;;;;;5.85;2.77;;;;;;;27.04;43.25;100530.34;1704439;83;21239;-57
2023/08/25 13:51:57;;;;;;;8.08;2.35;;;;;;;27.09;43.34;100526.13;1706310;83;21235;-57
2023/08/25 13:55:05;;;;;;;4.60;2.10;;;;;;;27.16;43.43;100527.26;1705937;83;21303;-57
2023/08/25 13:58:10;;;;;;;5.30;2.33;;;;;;;27.18;43.47;100518.81;1681274;85;21316;-57
2023/08/25 14:01:19;;;;;;;5.15;2.40;;;;;;;27.20;43.54;100523.60;1676122;84;21308;-54
2023/08/25 14:04:26;;;;;;;3.65;2.33;;;;;;;27.21;43.56;100528.09;1705102;83;21784;-54
2023/08/25 14:07:31;;;;;;;3.52;2.33;;;;;;;27.22;43.62;100527.53;1705095;83;21239;-54
2023/08/25 14:10:37;;;;;;;6.53;2.47;;;;;;;27.24;43.61;100531.73;1705635;83;21224;-54
2023/08/25 14:13:45;;;;;;;3.30;2.00;;;;;;;27.24;43.56;100523.30;1706661;82;21321;-55
2023/08/25 14:16:52;;;;;;;3.58;2.10;;;;;;;27.26;43.56;100518.28;1730074;82;21242;-55
2023/08/25 14:19:58;;;;;;;8.08;4.20;;;;;;;27.28;43.43;100523.07;1735382;82;21268;-56
2023/08/25 14:23:05;;;;;;;12.03;7.05;;;;;;;27.30;43.45;100525.05;1670572;85;21272;-54